sensor_id;sensor_type;location;lat;lon;timestamp;P1;durP1;ratioP1;P2;durP2;ratioP2
70946;SDS011;58605;48.700;8.760;2024-03-02T00:00:38;7.53;;;4.73;;
70946;SDS011;58605;48.700;8.760;2024-03-02T00:03:05;6.50;;;4.73;;
70946;SDS011;58605;48.700;8.760;2024-03-02T00:05:36;6.33;;;4.73;;
70946;SDS011;58605;48.700;8.760;2024-03-02T00:08:02;6.27;;;4.73;;
70946;SDS011;58605;48.700;8.760;2024-03-02T00:10:34;6.70;;;5.03;;
70946;SDS011;58605;48.700;8.760;2024-03-02T00:13:04;5.43;;;4.43;;
70946;SDS011;58605;48.700;8.760;2024-03-02T00:15:37;6.83;;;4.60;;
70946;SDS011;58605;48.700;8.760;2024-03-02T00:18:08;7.17;;;5.40;;
70946;SDS011;58605;48.700;8.760;2024-03-02T00:20:38;7.57;;;5.43;;
70946;SDS011;58605;48.700;8.760;2024-03-02T00:23:04;6.90;;;5.10;;
70946;SDS011;58605;48.700;8.760;2024-03-02T00:25:38;8.23;;;5.37;;
70946;SDS011;58605;48.700;8.760;2024-03-02T00:28:10;7.57;;;5.40;;
70946;SDS011;58605;48.700;8.760;2024-03-02T00:30:51;8.50;;;5.50;;
70946;SDS011;58605;48.700;8.760;2024-03-02T00:33:30;8.37;;;5.60;;
70946;SDS011;58605;48.700;8.760;2024-03-02T00:36:05;7.83;;;5.73;;
70946;SDS011;58605;48.700;8.760;2024-03-02T00:38:33;6.50;;;4.93;;
70946;SDS011;58605;48.700;8.760;2024-03-02T00:41:03;7.93;;;6.27;;
70946;SDS011;58605;48.700;8.760;2024-03-02T00:43:43;8.10;;;5.63;;
70946;SDS011;58605;48.700;8.760;2024-03-02T00:46:12;8.37;;;6.07;;
70946;SDS011;58605;48.700;8.760;2024-03-02T00:48:44;7.57;;;5.73;;
70946;SDS011;58605;48.700;8.760;2024-03-02T00:51:15;7.87;;;5.93;;
70946;SDS011;58605;48.700;8.760;2024-03-02T00:53:41;7.37;;;5.57;;
70946;SDS011;58605;48.700;8.760;2024-03-02T00:56:09;8.00;;;5.13;;
70946;SDS011;58605;48.700;8.760;2024-03-02T00:58:37;8.50;;;6.13;;
70946;SDS011;58605;48.700;8.760;2024-03-02T01:01:03;9.33;;;6.30;;
70946;SDS011;58605;48.700;8.760;2024-03-02T01:03:30;7.97;;;5.83;;
70946;SDS011;58605;48.700;8.760;2024-03-02T01:05:57;10.30;;;6.03;;
70946;SDS011;58605;48.700;8.760;2024-03-02T01:08:25;9.17;;;5.73;;
70946;SDS011;58605;48.700;8.760;2024-03-02T01:10:51;8.13;;;5.90;;
70946;SDS011;58605;48.700;8.760;2024-03-02T01:13:18;9.00;;;6.37;;
70946;SDS011;58605;48.700;8.760;2024-03-02T01:15:44;8.50;;;6.40;;
70946;SDS011;58605;48.700;8.760;2024-03-02T01:18:10;9.23;;;6.03;;
70946;SDS011;58605;48.700;8.760;2024-03-02T01:20:36;8.40;;;6.20;;
70946;SDS011;58605;48.700;8.760;2024-03-02T01:23:03;9.63;;;7.27;;
70946;SDS011;58605;48.700;8.760;2024-03-02T01:25:30;13.07;;;8.00;;
70946;SDS011;58605;48.700;8.760;2024-03-02T01:27:57;11.57;;;8.47;;
70946;SDS011;58605;48.700;8.760;2024-03-02T01:30:23;9.53;;;7.90;;
70946;SDS011;58605;48.700;8.760;2024-03-02T01:32:56;13.10;;;8.10;;
70946;SDS011;58605;48.700;8.760;2024-03-02T01:35:24;8.40;;;5.90;;
70946;SDS011;58605;48.700;8.760;2024-03-02T01:37:51;7.97;;;6.17;;
70946;SDS011;58605;48.700;8.760;2024-03-02T01:40:18;8.37;;;6.43;;
70946;SDS011;58605;48.700;8.760;2024-03-02T01:42:45;10.80;;;7.77;;
70946;SDS011;58605;48.700;8.760;2024-03-02T01:45:12;12.00;;;8.20;;
70946;SDS011;58605;48.700;8.760;2024-03-02T01:47:38;12.70;;;8.27;;
70946;SDS011;58605;48.700;8.760;2024-03-02T01:50:04;11.70;;;8.40;;
70946;SDS011;58605;48.700;8.760;2024-03-02T01:52:31;11.10;;;8.37;;
70946;SDS011;58605;48.700;8.760;2024-03-02T01:54:57;12.53;;;9.17;;
70946;SDS011;58605;48.700;8.760;2024-03-02T01:57:23;10.53;;;8.10;;
70946;SDS011;58605;48.700;8.760;2024-03-02T01:59:51;10.80;;;8.47;;
70946;SDS011;58605;48.700;8.760;2024-03-02T02:02:27;11.83;;;8.50;;
70946;SDS011;58605;48.700;8.760;2024-03-02T02:04:53;12.63;;;9.13;;
70946;SDS011;58605;48.700;8.760;2024-03-02T02:07:19;10.23;;;7.27;;
70946;SDS011;58605;48.700;8.760;2024-03-02T02:09:46;10.23;;;7.73;;
70946;SDS011;58605;48.700;8.760;2024-03-02T02:12:12;10.57;;;7.63;;
70946;SDS011;58605;48.700;8.760;2024-03-02T02:14:38;15.47;;;7.87;;
70946;SDS011;58605;48.700;8.760;2024-03-02T02:17:06;11.93;;;8.60;;
70946;SDS011;58605;48.700;8.760;2024-03-02T02:19:32;10.43;;;8.27;;
70946;SDS011;58605;48.700;8.760;2024-03-02T02:22:00;10.97;;;8.03;;
70946;SDS011;58605;48.700;8.760;2024-03-02T02:24:26;11.73;;;8.40;;
70946;SDS011;58605;48.700;8.760;2024-03-02T02:26:52;11.60;;;8.70;;
70946;SDS011;58605;48.700;8.760;2024-03-02T02:29:19;13.90;;;9.50;;
70946;SDS011;58605;48.700;8.760;2024-03-02T02:31:45;13.50;;;9.80;;
70946;SDS011;58605;48.700;8.760;2024-03-02T02:34:11;12.80;;;9.30;;
70946;SDS011;58605;48.700;8.760;2024-03-02T02:36:39;11.13;;;8.63;;
70946;SDS011;58605;48.700;8.760;2024-03-02T02:39:07;10.03;;;7.73;;
70946;SDS011;58605;48.700;8.760;2024-03-02T02:41:36;12.47;;;8.70;;
70946;SDS011;58605;48.700;8.760;2024-03-02T02:44:02;11.43;;;8.47;;
70946;SDS011;58605;48.700;8.760;2024-03-02T02:46:28;11.37;;;8.47;;
70946;SDS011;58605;48.700;8.760;2024-03-02T02:48:55;15.17;;;9.00;;
70946;SDS011;58605;48.700;8.760;2024-03-02T02:51:21;13.53;;;9.20;;
70946;SDS011;58605;48.700;8.760;2024-03-02T02:53:47;13.13;;;8.77;;
70946;SDS011;58605;48.700;8.760;2024-03-02T02:56:15;14.87;;;9.13;;
70946;SDS011;58605;48.700;8.760;2024-03-02T02:58:41;11.60;;;8.67;;
70946;SDS011;58605;48.700;8.760;2024-03-02T03:01:07;12.83;;;8.77;;
70946;SDS011;58605;48.700;8.760;2024-03-02T03:03:33;11.30;;;8.60;;
70946;SDS011;58605;48.700;8.760;2024-03-02T03:05:59;11.50;;;8.67;;
70946;SDS011;58605;48.700;8.760;2024-03-02T03:08:26;11.97;;;8.63;;
70946;SDS011;58605;48.700;8.760;2024-03-02T03:10:52;12.03;;;8.73;;
70946;SDS011;58605;48.700;8.760;2024-03-02T03:13:19;10.97;;;7.70;;
70946;SDS011;58605;48.700;8.760;2024-03-02T03:15:46;8.87;;;5.97;;
70946;SDS011;58605;48.700;8.760;2024-03-02T03:18:12;10.80;;;5.47;;
70946;SDS011;58605;48.700;8.760;2024-03-02T03:20:38;15.50;;;6.50;;
70946;SDS011;58605;48.700;8.760;2024-03-02T03:23:04;9.80;;;6.80;;
70946;SDS011;58605;48.700;8.760;2024-03-02T03:25:30;8.80;;;6.70;;
70946;SDS011;58605;48.700;8.760;2024-03-02T03:27:56;12.47;;;7.70;;
70946;SDS011;58605;48.700;8.760;2024-03-02T03:30:24;9.47;;;6.80;;
70946;SDS011;58605;48.700;8.760;2024-03-02T03:32:50;10.27;;;7.20;;
70946;SDS011;58605;48.700;8.760;2024-03-02T03:35:16;9.37;;;6.50;;
70946;SDS011;58605;48.700;8.760;2024-03-02T03:37:43;9.50;;;7.20;;
70946;SDS011;58605;48.700;8.760;2024-03-02T03:40:10;13.47;;;7.60;;
70946;SDS011;58605;48.700;8.760;2024-03-02T03:42:36;9.57;;;6.83;;
70946;SDS011;58605;48.700;8.760;2024-03-02T03:45:03;8.93;;;7.03;;
70946;SDS011;58605;48.700;8.760;2024-03-02T03:47:32;9.87;;;6.70;;
70946;SDS011;58605;48.700;8.760;2024-03-02T03:50:05;10.77;;;6.47;;
70946;SDS011;58605;48.700;8.760;2024-03-02T03:52:32;7.73;;;5.77;;
70946;SDS011;58605;48.700;8.760;2024-03-02T03:54:58;7.87;;;5.97;;
70946;SDS011;58605;48.700;8.760;2024-03-02T03:57:25;17.67;;;6.63;;
70946;SDS011;58605;48.700;8.760;2024-03-02T03:59:51;9.50;;;6.67;;
70946;SDS011;58605;48.700;8.760;2024-03-02T04:02:17;12.10;;;7.50;;
70946;SDS011;58605;48.700;8.760;2024-03-02T04:04:45;7.37;;;6.00;;
70946;SDS011;58605;48.700;8.760;2024-03-02T04:07:11;9.07;;;7.10;;
70946;SDS011;58605;48.700;8.760;2024-03-02T04:09:37;9.90;;;7.13;;
70946;SDS011;58605;48.700;8.760;2024-03-02T04:12:04;10.60;;;7.03;;
70946;SDS011;58605;48.700;8.760;2024-03-02T04:14:30;10.83;;;7.37;;
70946;SDS011;58605;48.700;8.760;2024-03-02T04:16:56;11.43;;;8.07;;
70946;SDS011;58605;48.700;8.760;2024-03-02T04:19:22;13.03;;;7.33;;
70946;SDS011;58605;48.700;8.760;2024-03-02T04:21:49;9.87;;;6.37;;
70946;SDS011;58605;48.700;8.760;2024-03-02T04:24:15;10.20;;;6.63;;
70946;SDS011;58605;48.700;8.760;2024-03-02T04:26:42;9.60;;;6.77;;
70946;SDS011;58605;48.700;8.760;2024-03-02T04:29:08;9.50;;;6.40;;
70946;SDS011;58605;48.700;8.760;2024-03-02T04:31:34;10.33;;;7.33;;
70946;SDS011;58605;48.700;8.760;2024-03-02T04:34:00;11.47;;;7.07;;
70946;SDS011;58605;48.700;8.760;2024-03-02T04:36:26;9.70;;;7.27;;
70946;SDS011;58605;48.700;8.760;2024-03-02T04:38:53;8.37;;;6.53;;
70946;SDS011;58605;48.700;8.760;2024-03-02T04:41:19;11.10;;;7.47;;
70946;SDS011;58605;48.700;8.760;2024-03-02T04:43:45;10.80;;;8.33;;
70946;SDS011;58605;48.700;8.760;2024-03-02T04:46:11;13.03;;;9.13;;
70946;SDS011;58605;48.700;8.760;2024-03-02T04:48:37;14.10;;;10.43;;
70946;SDS011;58605;48.700;8.760;2024-03-02T04:51:03;15.93;;;10.60;;
70946;SDS011;58605;48.700;8.760;2024-03-02T04:53:29;13.97;;;10.60;;
70946;SDS011;58605;48.700;8.760;2024-03-02T04:55:57;14.60;;;10.33;;
70946;SDS011;58605;48.700;8.760;2024-03-02T04:58:43;15.07;;;10.67;;
70946;SDS011;58605;48.700;8.760;2024-03-02T05:01:09;15.83;;;10.00;;
70946;SDS011;58605;48.700;8.760;2024-03-02T05:03:35;15.87;;;11.17;;
70946;SDS011;58605;48.700;8.760;2024-03-02T05:06:02;14.07;;;9.83;;
70946;SDS011;58605;48.700;8.760;2024-03-02T05:08:28;16.07;;;11.30;;
70946;SDS011;58605;48.700;8.760;2024-03-02T05:10:54;18.10;;;10.97;;
70946;SDS011;58605;48.700;8.760;2024-03-02T05:13:42;15.07;;;10.47;;
70946;SDS011;58605;48.700;8.760;2024-03-02T05:16:08;14.77;;;9.47;;
70946;SDS011;58605;48.700;8.760;2024-03-02T05:18:37;15.80;;;11.20;;
70946;SDS011;58605;48.700;8.760;2024-03-02T05:21:03;12.13;;;9.23;;
70946;SDS011;58605;48.700;8.760;2024-03-02T05:23:30;14.67;;;10.17;;
70946;SDS011;58605;48.700;8.760;2024-03-02T05:25:57;17.73;;;11.60;;
70946;SDS011;58605;48.700;8.760;2024-03-02T05:28:24;11.87;;;8.43;;
70946;SDS011;58605;48.700;8.760;2024-03-02T05:30:50;11.13;;;8.10;;
70946;SDS011;58605;48.700;8.760;2024-03-02T05:33:16;12.17;;;7.87;;
70946;SDS011;58605;48.700;8.760;2024-03-02T05:35:43;11.67;;;7.67;;
70946;SDS011;58605;48.700;8.760;2024-03-02T05:38:09;15.23;;;10.87;;
70946;SDS011;58605;48.700;8.760;2024-03-02T05:40:35;17.00;;;11.70;;
70946;SDS011;58605;48.700;8.760;2024-03-02T05:43:03;18.83;;;12.57;;
70946;SDS011;58605;48.700;8.760;2024-03-02T05:45:29;19.13;;;12.77;;
70946;SDS011;58605;48.700;8.760;2024-03-02T05:47:55;17.50;;;12.60;;
70946;SDS011;58605;48.700;8.760;2024-03-02T05:50:22;17.00;;;12.03;;
70946;SDS011;58605;48.700;8.760;2024-03-02T05:52:48;16.57;;;11.97;;
70946;SDS011;58605;48.700;8.760;2024-03-02T05:55:14;57.03;;;9.03;;
70946;SDS011;58605;48.700;8.760;2024-03-02T05:57:40;299.37;;;22.47;;
70946;SDS011;58605;48.700;8.760;2024-03-02T06:00:11;221.50;;;17.67;;
70946;SDS011;58605;48.700;8.760;2024-03-02T06:02:38;267.17;;;19.37;;
70946;SDS011;58605;48.700;8.760;2024-03-02T06:05:05;189.67;;;13.77;;
70946;SDS011;58605;48.700;8.760;2024-03-02T06:07:34;66.07;;;8.67;;
70946;SDS011;58605;48.700;8.760;2024-03-02T06:10:00;10.73;;;7.63;;
70946;SDS011;58605;48.700;8.760;2024-03-02T06:12:26;11.87;;;7.90;;
70946;SDS011;58605;48.700;8.760;2024-03-02T06:14:52;15.37;;;10.10;;
70946;SDS011;58605;48.700;8.760;2024-03-02T06:17:20;16.97;;;11.00;;
70946;SDS011;58605;48.700;8.760;2024-03-02T06:19:46;14.43;;;10.20;;
70946;SDS011;58605;48.700;8.760;2024-03-02T06:22:13;16.43;;;11.47;;
70946;SDS011;58605;48.700;8.760;2024-03-02T06:24:39;14.97;;;9.57;;
70946;SDS011;58605;48.700;8.760;2024-03-02T06:27:05;12.87;;;9.17;;
70946;SDS011;58605;48.700;8.760;2024-03-02T06:29:32;12.87;;;9.53;;
70946;SDS011;58605;48.700;8.760;2024-03-02T06:31:59;14.33;;;9.73;;
70946;SDS011;58605;48.700;8.760;2024-03-02T06:34:26;13.27;;;10.07;;
70946;SDS011;58605;48.700;8.760;2024-03-02T06:36:52;10.87;;;8.57;;
70946;SDS011;58605;48.700;8.760;2024-03-02T06:39:18;10.77;;;7.93;;
70946;SDS011;58605;48.700;8.760;2024-03-02T06:41:44;14.50;;;8.83;;
70946;SDS011;58605;48.700;8.760;2024-03-02T06:44:12;14.73;;;8.73;;
70946;SDS011;58605;48.700;8.760;2024-03-02T06:46:38;13.80;;;9.77;;
70946;SDS011;58605;48.700;8.760;2024-03-02T06:49:04;16.57;;;10.90;;
70946;SDS011;58605;48.700;8.760;2024-03-02T06:51:33;9.80;;;6.93;;
70946;SDS011;58605;48.700;8.760;2024-03-02T06:53:59;10.90;;;7.73;;
70946;SDS011;58605;48.700;8.760;2024-03-02T06:56:26;10.10;;;7.50;;
70946;SDS011;58605;48.700;8.760;2024-03-02T06:58:52;15.93;;;10.47;;
70946;SDS011;58605;48.700;8.760;2024-03-02T07:01:18;13.00;;;8.97;;
70946;SDS011;58605;48.700;8.760;2024-03-02T07:03:45;13.37;;;8.33;;
70946;SDS011;58605;48.700;8.760;2024-03-02T07:06:11;14.73;;;8.50;;
70946;SDS011;58605;48.700;8.760;2024-03-02T07:08:39;14.20;;;8.67;;
70946;SDS011;58605;48.700;8.760;2024-03-02T07:11:05;12.27;;;9.00;;
70946;SDS011;58605;48.700;8.760;2024-03-02T07:13:31;16.33;;;7.97;;
70946;SDS011;58605;48.700;8.760;2024-03-02T07:15:57;14.50;;;9.27;;
70946;SDS011;58605;48.700;8.760;2024-03-02T07:18:29;13.33;;;9.13;;
70946;SDS011;58605;48.700;8.760;2024-03-02T07:20:58;14.67;;;10.67;;
70946;SDS011;58605;48.700;8.760;2024-03-02T07:23:26;13.80;;;9.20;;
70946;SDS011;58605;48.700;8.760;2024-03-02T07:25:54;15.83;;;9.97;;
70946;SDS011;58605;48.700;8.760;2024-03-02T07:28:21;14.13;;;8.00;;
70946;SDS011;58605;48.700;8.760;2024-03-02T07:30:50;11.43;;;8.23;;
70946;SDS011;58605;48.700;8.760;2024-03-02T07:33:24;11.43;;;8.13;;
70946;SDS011;58605;48.700;8.760;2024-03-02T07:35:50;14.13;;;8.77;;
70946;SDS011;58605;48.700;8.760;2024-03-02T07:38:16;15.80;;;10.73;;
70946;SDS011;58605;48.700;8.760;2024-03-02T07:40:42;17.40;;;11.47;;
70946;SDS011;58605;48.700;8.760;2024-03-02T07:43:10;17.50;;;11.50;;
70946;SDS011;58605;48.700;8.760;2024-03-02T07:45:36;16.23;;;10.87;;
70946;SDS011;58605;48.700;8.760;2024-03-02T07:48:03;15.77;;;10.67;;
70946;SDS011;58605;48.700;8.760;2024-03-02T07:50:29;17.73;;;12.13;;
70946;SDS011;58605;48.700;8.760;2024-03-02T07:53:00;16.67;;;11.87;;
70946;SDS011;58605;48.700;8.760;2024-03-02T07:55:26;15.27;;;10.87;;
70946;SDS011;58605;48.700;8.760;2024-03-02T07:57:52;12.47;;;7.57;;
70946;SDS011;58605;48.700;8.760;2024-03-02T08:00:20;11.93;;;8.00;;
70946;SDS011;58605;48.700;8.760;2024-03-02T08:02:46;9.80;;;7.60;;
70946;SDS011;58605;48.700;8.760;2024-03-02T08:05:12;10.63;;;7.27;;
70946;SDS011;58605;48.700;8.760;2024-03-02T08:07:39;11.23;;;8.10;;
70946;SDS011;58605;48.700;8.760;2024-03-02T08:10:06;14.27;;;10.67;;
70946;SDS011;58605;48.700;8.760;2024-03-02T08:12:33;16.83;;;10.77;;
70946;SDS011;58605;48.700;8.760;2024-03-02T08:14:59;19.50;;;12.97;;
70946;SDS011;58605;48.700;8.760;2024-03-02T08:17:26;15.63;;;11.13;;
70946;SDS011;58605;48.700;8.760;2024-03-02T08:19:53;15.90;;;10.50;;
70946;SDS011;58605;48.700;8.760;2024-03-02T08:22:19;18.93;;;12.57;;
70946;SDS011;58605;48.700;8.760;2024-03-02T08:24:45;12.50;;;8.43;;
70946;SDS011;58605;48.700;8.760;2024-03-02T08:27:12;17.73;;;11.43;;
70946;SDS011;58605;48.700;8.760;2024-03-02T08:29:38;13.10;;;7.30;;
70946;SDS011;58605;48.700;8.760;2024-03-02T08:32:04;9.43;;;6.50;;
70946;SDS011;58605;48.700;8.760;2024-03-02T08:34:32;10.27;;;6.90;;
70946;SDS011;58605;48.700;8.760;2024-03-02T08:37:00;14.73;;;10.63;;
70946;SDS011;58605;48.700;8.760;2024-03-02T08:39:26;13.40;;;8.90;;
70946;SDS011;58605;48.700;8.760;2024-03-02T08:41:53;11.33;;;7.53;;
70946;SDS011;58605;48.700;8.760;2024-03-02T08:44:19;13.57;;;8.57;;
70946;SDS011;58605;48.700;8.760;2024-03-02T08:46:45;12.43;;;8.00;;
70946;SDS011;58605;48.700;8.760;2024-03-02T08:49:12;15.03;;;10.20;;
70946;SDS011;58605;48.700;8.760;2024-03-02T08:51:39;11.50;;;8.53;;
70946;SDS011;58605;48.700;8.760;2024-03-02T08:54:05;17.10;;;10.93;;
70946;SDS011;58605;48.700;8.760;2024-03-02T08:56:32;17.67;;;11.60;;
70946;SDS011;58605;48.700;8.760;2024-03-02T08:58:58;14.07;;;10.50;;
70946;SDS011;58605;48.700;8.760;2024-03-02T09:01:24;15.47;;;10.37;;
70946;SDS011;58605;48.700;8.760;2024-03-02T09:03:50;15.70;;;11.37;;
70946;SDS011;58605;48.700;8.760;2024-03-02T09:06:16;12.63;;;9.23;;
70946;SDS011;58605;48.700;8.760;2024-03-02T09:08:44;13.43;;;10.73;;
70946;SDS011;58605;48.700;8.760;2024-03-02T09:11:10;12.30;;;9.03;;
70946;SDS011;58605;48.700;8.760;2024-03-02T09:13:37;14.73;;;11.20;;
70946;SDS011;58605;48.700;8.760;2024-03-02T09:16:04;14.27;;;9.10;;
70946;SDS011;58605;48.700;8.760;2024-03-02T09:18:30;28.93;;;19.57;;
70946;SDS011;58605;48.700;8.760;2024-03-02T09:20:56;24.93;;;17.30;;
70946;SDS011;58605;48.700;8.760;2024-03-02T09:23:23;26.03;;;18.33;;
70946;SDS011;58605;48.700;8.760;2024-03-02T09:25:50;18.77;;;13.43;;
70946;SDS011;58605;48.700;8.760;2024-03-02T09:28:17;13.30;;;9.00;;
70946;SDS011;58605;48.700;8.760;2024-03-02T09:30:43;13.93;;;10.60;;
70946;SDS011;58605;48.700;8.760;2024-03-02T09:33:10;13.77;;;10.07;;
70946;SDS011;58605;48.700;8.760;2024-03-02T09:35:36;14.03;;;9.80;;
70946;SDS011;58605;48.700;8.760;2024-03-02T09:38:02;12.60;;;9.13;;
70946;SDS011;58605;48.700;8.760;2024-03-02T09:40:28;13.67;;;8.97;;
70946;SDS011;58605;48.700;8.760;2024-03-02T09:42:56;12.70;;;8.87;;
70946;SDS011;58605;48.700;8.760;2024-03-02T09:45:23;10.83;;;8.03;;
70946;SDS011;58605;48.700;8.760;2024-03-02T09:47:50;14.67;;;9.37;;
70946;SDS011;58605;48.700;8.760;2024-03-02T09:50:16;11.77;;;8.93;;
70946;SDS011;58605;48.700;8.760;2024-03-02T09:52:42;13.23;;;9.17;;
70946;SDS011;58605;48.700;8.760;2024-03-02T09:55:09;12.87;;;8.97;;
70946;SDS011;58605;48.700;8.760;2024-03-02T09:57:36;11.73;;;8.13;;
70946;SDS011;58605;48.700;8.760;2024-03-02T10:00:05;12.90;;;8.30;;
70946;SDS011;58605;48.700;8.760;2024-03-02T10:02:32;10.47;;;7.13;;
70946;SDS011;58605;48.700;8.760;2024-03-02T10:04:58;12.20;;;8.67;;
70946;SDS011;58605;48.700;8.760;2024-03-02T10:07:24;13.90;;;8.20;;
70946;SDS011;58605;48.700;8.760;2024-03-02T10:09:50;12.07;;;8.10;;
70946;SDS011;58605;48.700;8.760;2024-03-02T10:12:17;10.00;;;7.20;;
70946;SDS011;58605;48.700;8.760;2024-03-02T10:14:44;12.37;;;8.57;;
70946;SDS011;58605;48.700;8.760;2024-03-02T10:17:13;11.97;;;7.83;;
70946;SDS011;58605;48.700;8.760;2024-03-02T10:19:40;14.33;;;7.90;;
70946;SDS011;58605;48.700;8.760;2024-03-02T10:22:07;12.33;;;7.67;;
70946;SDS011;58605;48.700;8.760;2024-03-02T10:24:34;8.67;;;6.70;;
70946;SDS011;58605;48.700;8.760;2024-03-02T10:27:05;8.67;;;6.63;;
70946;SDS011;58605;48.700;8.760;2024-03-02T10:29:36;7.90;;;6.07;;
70946;SDS011;58605;48.700;8.760;2024-03-02T10:32:04;8.70;;;6.37;;
70946;SDS011;58605;48.700;8.760;2024-03-02T10:34:33;7.77;;;5.60;;
70946;SDS011;58605;48.700;8.760;2024-03-02T10:37:00;8.40;;;6.23;;
70946;SDS011;58605;48.700;8.760;2024-03-02T10:39:27;7.67;;;5.77;;
70946;SDS011;58605;48.700;8.760;2024-03-02T10:41:55;7.60;;;5.67;;
70946;SDS011;58605;48.700;8.760;2024-03-02T10:44:22;7.07;;;5.63;;
70946;SDS011;58605;48.700;8.760;2024-03-02T10:46:49;7.43;;;5.30;;
70946;SDS011;58605;48.700;8.760;2024-03-02T10:49:16;8.70;;;5.03;;
70946;SDS011;58605;48.700;8.760;2024-03-02T10:51:44;6.23;;;4.97;;
70946;SDS011;58605;48.700;8.760;2024-03-02T10:54:10;6.83;;;5.30;;
70946;SDS011;58605;48.700;8.760;2024-03-02T10:56:38;5.63;;;4.63;;
70946;SDS011;58605;48.700;8.760;2024-03-02T10:59:06;6.97;;;4.70;;
70946;SDS011;58605;48.700;8.760;2024-03-02T11:01:43;6.43;;;4.50;;
70946;SDS011;58605;48.700;8.760;2024-03-02T11:04:14;7.37;;;5.30;;
70946;SDS011;58605;48.700;8.760;2024-03-02T11:06:44;8.03;;;5.10;;
70946;SDS011;58605;48.700;8.760;2024-03-02T11:09:14;8.67;;;4.93;;
70946;SDS011;58605;48.700;8.760;2024-03-02T11:11:49;5.30;;;3.97;;
70946;SDS011;58605;48.700;8.760;2024-03-02T11:14:21;8.20;;;4.40;;
70946;SDS011;58605;48.700;8.760;2024-03-02T11:16:50;5.97;;;3.90;;
70946;SDS011;58605;48.700;8.760;2024-03-02T11:19:17;7.67;;;4.70;;
70946;SDS011;58605;48.700;8.760;2024-03-02T11:21:45;5.40;;;3.90;;
70946;SDS011;58605;48.700;8.760;2024-03-02T11:24:31;5.60;;;4.13;;
70946;SDS011;58605;48.700;8.760;2024-03-02T11:26:58;5.53;;;4.13;;
70946;SDS011;58605;48.700;8.760;2024-03-02T11:29:43;6.30;;;4.73;;
70946;SDS011;58605;48.700;8.760;2024-03-02T11:32:20;5.27;;;3.70;;
70946;SDS011;58605;48.700;8.760;2024-03-02T11:34:48;7.00;;;4.10;;
70946;SDS011;58605;48.700;8.760;2024-03-02T11:37:16;3.50;;;2.97;;
70946;SDS011;58605;48.700;8.760;2024-03-02T11:39:44;5.53;;;4.10;;
70946;SDS011;58605;48.700;8.760;2024-03-02T11:42:10;4.37;;;3.30;;
70946;SDS011;58605;48.700;8.760;2024-03-02T11:44:39;4.93;;;3.53;;
70946;SDS011;58605;48.700;8.760;2024-03-02T11:47:08;4.87;;;3.20;;
70946;SDS011;58605;48.700;8.760;2024-03-02T11:49:36;3.27;;;2.97;;
70946;SDS011;58605;48.700;8.760;2024-03-02T11:52:06;3.50;;;2.60;;
70946;SDS011;58605;48.700;8.760;2024-03-02T11:54:35;3.97;;;2.73;;
70946;SDS011;58605;48.700;8.760;2024-03-02T11:57:05;3.20;;;2.60;;
70946;SDS011;58605;48.700;8.760;2024-03-02T11:59:32;2.80;;;2.40;;
70946;SDS011;58605;48.700;8.760;2024-03-02T12:01:58;3.37;;;2.57;;
70946;SDS011;58605;48.700;8.760;2024-03-02T12:04:25;4.93;;;3.10;;
70946;SDS011;58605;48.700;8.760;2024-03-02T12:06:54;4.47;;;2.80;;
70946;SDS011;58605;48.700;8.760;2024-03-02T12:09:20;3.90;;;2.67;;
70946;SDS011;58605;48.700;8.760;2024-03-02T12:11:48;2.87;;;2.40;;
70946;SDS011;58605;48.700;8.760;2024-03-02T12:14:27;4.80;;;2.73;;
70946;SDS011;58605;48.700;8.760;2024-03-02T12:16:54;3.80;;;2.40;;
70946;SDS011;58605;48.700;8.760;2024-03-02T12:19:21;3.03;;;2.50;;
70946;SDS011;58605;48.700;8.760;2024-03-02T12:21:47;2.50;;;2.17;;
70946;SDS011;58605;48.700;8.760;2024-03-02T12:24:13;2.53;;;1.90;;
70946;SDS011;58605;48.700;8.760;2024-03-02T12:26:46;1.97;;;1.80;;
70946;SDS011;58605;48.700;8.760;2024-03-02T12:29:14;2.20;;;1.90;;
70946;SDS011;58605;48.700;8.760;2024-03-02T12:31:41;2.97;;;2.20;;
70946;SDS011;58605;48.700;8.760;2024-03-02T12:34:11;2.10;;;1.90;;
70946;SDS011;58605;48.700;8.760;2024-03-02T12:36:38;2.73;;;1.93;;
70946;SDS011;58605;48.700;8.760;2024-03-02T12:39:04;2.63;;;2.03;;
70946;SDS011;58605;48.700;8.760;2024-03-02T12:41:31;2.20;;;1.93;;
70946;SDS011;58605;48.700;8.760;2024-03-02T12:43:57;3.03;;;2.40;;
70946;SDS011;58605;48.700;8.760;2024-03-02T12:46:24;2.73;;;2.03;;
70946;SDS011;58605;48.700;8.760;2024-03-02T12:48:51;3.13;;;2.00;;
70946;SDS011;58605;48.700;8.760;2024-03-02T12:51:17;2.70;;;2.07;;
70946;SDS011;58605;48.700;8.760;2024-03-02T12:53:43;4.40;;;2.00;;
70946;SDS011;58605;48.700;8.760;2024-03-02T12:56:09;2.73;;;1.93;;
70946;SDS011;58605;48.700;8.760;2024-03-02T12:58:38;2.23;;;2.00;;
70946;SDS011;58605;48.700;8.760;2024-03-02T13:01:06;2.30;;;1.90;;
70946;SDS011;58605;48.700;8.760;2024-03-02T13:03:36;3.30;;;2.20;;
70946;SDS011;58605;48.700;8.760;2024-03-02T13:06:03;2.63;;;2.10;;
70946;SDS011;58605;48.700;8.760;2024-03-02T13:08:30;3.17;;;2.30;;
70946;SDS011;58605;48.700;8.760;2024-03-02T13:10:57;2.83;;;2.37;;
70946;SDS011;58605;48.700;8.760;2024-03-02T13:13:23;3.30;;;2.37;;
70946;SDS011;58605;48.700;8.760;2024-03-02T13:15:49;3.53;;;2.40;;
70946;SDS011;58605;48.700;8.760;2024-03-02T13:18:17;3.10;;;2.10;;
70946;SDS011;58605;48.700;8.760;2024-03-02T13:20:45;3.40;;;2.40;;
70946;SDS011;58605;48.700;8.760;2024-03-02T13:23:15;4.83;;;2.50;;
70946;SDS011;58605;48.700;8.760;2024-03-02T13:25:41;3.00;;;2.37;;
70946;SDS011;58605;48.700;8.760;2024-03-02T13:28:08;4.27;;;2.27;;
70946;SDS011;58605;48.700;8.760;2024-03-02T13:30:34;4.83;;;2.70;;
70946;SDS011;58605;48.700;8.760;2024-03-02T13:33:00;2.73;;;2.00;;
70946;SDS011;58605;48.700;8.760;2024-03-02T13:35:26;2.90;;;2.10;;
70946;SDS011;58605;48.700;8.760;2024-03-02T13:37:54;2.83;;;2.17;;
70946;SDS011;58605;48.700;8.760;2024-03-02T13:40:20;2.90;;;2.10;;
70946;SDS011;58605;48.700;8.760;2024-03-02T13:42:46;3.80;;;2.07;;
70946;SDS011;58605;48.700;8.760;2024-03-02T13:45:12;2.87;;;1.90;;
70946;SDS011;58605;48.700;8.760;2024-03-02T13:47:38;2.30;;;2.00;;
70946;SDS011;58605;48.700;8.760;2024-03-02T13:50:05;4.53;;;2.40;;
70946;SDS011;58605;48.700;8.760;2024-03-02T13:52:32;2.70;;;2.10;;
70946;SDS011;58605;48.700;8.760;2024-03-02T13:55:00;3.87;;;2.27;;
70946;SDS011;58605;48.700;8.760;2024-03-02T13:57:26;2.83;;;2.30;;
70946;SDS011;58605;48.700;8.760;2024-03-02T13:59:52;3.87;;;2.23;;
70946;SDS011;58605;48.700;8.760;2024-03-02T14:02:18;2.77;;;2.20;;
70946;SDS011;58605;48.700;8.760;2024-03-02T14:04:44;2.67;;;2.10;;
70946;SDS011;58605;48.700;8.760;2024-03-02T14:07:10;2.17;;;1.97;;
70946;SDS011;58605;48.700;8.760;2024-03-02T14:09:37;2.63;;;2.10;;
70946;SDS011;58605;48.700;8.760;2024-03-02T14:12:05;3.20;;;2.10;;
70946;SDS011;58605;48.700;8.760;2024-03-02T14:14:32;2.60;;;1.93;;
70946;SDS011;58605;48.700;8.760;2024-03-02T14:16:58;3.07;;;2.00;;
70946;SDS011;58605;48.700;8.760;2024-03-02T14:19:31;3.93;;;2.43;;
70946;SDS011;58605;48.700;8.760;2024-03-02T14:21:57;2.47;;;2.00;;
70946;SDS011;58605;48.700;8.760;2024-03-02T14:24:24;4.67;;;2.43;;
70946;SDS011;58605;48.700;8.760;2024-03-02T14:26:51;3.57;;;2.20;;
70946;SDS011;58605;48.700;8.760;2024-03-02T14:29:18;2.93;;;2.17;;
70946;SDS011;58605;48.700;8.760;2024-03-02T14:31:51;2.20;;;1.90;;
70946;SDS011;58605;48.700;8.760;2024-03-02T14:34:17;4.00;;;2.00;;
70946;SDS011;58605;48.700;8.760;2024-03-02T14:36:43;3.40;;;2.40;;
70946;SDS011;58605;48.700;8.760;2024-03-02T14:39:09;4.03;;;2.00;;